»·PEaware :: N13151 KIZA-KSBP

N13151 :: KIZA-KSBP

FLIGHT INFORMATION

Flight Status: Arrived
Operator: Privately registered:
United States
More flights under this callsign
Pilot: Evens F. (14710)
Aircraft: CESSNA 172 SKYHAWK
(C172)
More flights by this aircraft type
Origin: KIZA Santa Ynez
United States
Destination: KSBP San Luis Co Regl
United States
More flights between these airports :: More routes between these airports
Route: +CADAB
File this flight plan on PilotEdge
Remarks:
Altitude:
(Current/Filed)
6,000ft
Speed:
(Current/Filed)
110kts
Departed: 13-Feb-20 10:18 AM
Arrived: 13-Feb-20 11:06 AM
Distance/Time
Traveled:
47nm/0:47
Distance/Time
To Go:
Arrived

Flight Plot

Page will automatically refresh every two minutes.

Flight plan parsing failed; only flown route is shown


Map Options




Map Legend


Flown Route
Filed Route
Departure Airport
Arrival Airport
Navaid (VOR, NDB)
Fix

Horizontal Profiles

Position Reports

Time Latitude Longitude Heading Altitude Ground
Speed
13-Feb-20 09:49 34.607195 -120.072818 188 674ft 0kts
13-Feb-20 09:50 34.607195 -120.072818 188 674ft 0kts
13-Feb-20 09:51 34.607195 -120.072818 188 674ft 0kts
13-Feb-20 09:52 34.607195 -120.072818 188 674ft 0kts
13-Feb-20 09:53 34.607195 -120.072818 188 674ft 0kts
13-Feb-20 09:54 34.607195 -120.072818 188 674ft 0kts
13-Feb-20 09:55 34.607195 -120.072818 188 674ft 0kts
13-Feb-20 09:56 34.607195 -120.072818 188 674ft 0kts
13-Feb-20 09:57 34.607195 -120.072818 188 674ft 0kts
13-Feb-20 09:58 34.607195 -120.072818 188 674ft 0kts
13-Feb-20 09:59 34.607195 -120.072818 188 674ft 0kts
13-Feb-20 10:00 34.607195 -120.072818 188 674ft 0kts
13-Feb-20 10:01 34.607195 -120.072818 188 674ft 0kts
13-Feb-20 10:02 34.607195 -120.072818 188 674ft 0kts
13-Feb-20 10:03 34.607195 -120.072818 188 674ft 0kts
13-Feb-20 10:04 34.607195 -120.072818 188 674ft 0kts
13-Feb-20 10:05 34.607195 -120.072818 188 674ft 0kts
13-Feb-20 10:06 34.607195 -120.072818 188 674ft 0kts
13-Feb-20 10:07 34.607195 -120.072818 188 674ft 0kts
13-Feb-20 10:08 34.607195 -120.072818 188 674ft 0kts
13-Feb-20 10:09 34.607195 -120.072818 188 674ft 0kts
13-Feb-20 10:10 34.607069 -120.072666 95 674ft 5kts
13-Feb-20 10:11 34.607067 -120.072372 94 674ft 0kts
13-Feb-20 10:12 34.607027 -120.072079 116 674ft 0kts
13-Feb-20 10:13 34.606756 -120.071569 103 674ft 0kts
13-Feb-20 10:14 34.606693 -120.071115 102 674ft 0kts
13-Feb-20 10:15 34.606687 -120.071050 96 674ft 0kts
13-Feb-20 10:16 34.606687 -120.071050 96 674ft 0kts
13-Feb-20 10:18 34.606581 -120.073257 283 674ft 52kts
13-Feb-20 10:19 34.609265 -120.101618 275 1566ft 89kts
13-Feb-20 10:20 34.611911 -120.129215 275 2724ft 80kts
13-Feb-20 10:21 34.615043 -120.156232 289 3729ft 81kts
13-Feb-20 10:22 34.624380 -120.180963 297 4673ft 81kts
13-Feb-20 10:23 34.637590 -120.203566 314 5543ft 83kts
13-Feb-20 10:24 34.656395 -120.224484 320 6055ft 110kts
13-Feb-20 10:25 34.680919 -120.249531 321 6065ft 112kts
13-Feb-20 10:26 34.703470 -120.273390 316 6081ft 115kts
13-Feb-20 10:27 34.727688 -120.299762 316 6074ft 116kts
13-Feb-20 10:28 34.752215 -120.325427 320 6077ft 116kts
13-Feb-20 10:29 34.777877 -120.349329 328 6068ft 115kts
13-Feb-20 10:30 34.803616 -120.372607 322 6061ft 115kts
13-Feb-20 10:31 34.829759 -120.395247 326 6047ft 115kts
13-Feb-20 10:32 34.856791 -120.415851 324 6055ft 114kts
13-Feb-20 10:33 34.883006 -120.438002 327 6040ft 112kts
13-Feb-20 10:34 34.908066 -120.457486 328 6083ft 106kts
13-Feb-20 10:34 34.930490 -120.474460 327 6020ft 116kts
13-Feb-20 10:36 34.961139 -120.497862 327 6038ft 110kts
13-Feb-20 10:37 34.986949 -120.518502 323 6003ft 111kts
13-Feb-20 10:37 35.009403 -120.533840 350 5945ft 113kts
13-Feb-20 10:39 35.041965 -120.511260 33 4848ft 119kts
13-Feb-20 10:40 35.068824 -120.488991 31 4049ft 117kts
13-Feb-20 10:40 35.091418 -120.470545 34 3913ft 114kts
13-Feb-20 10:41 35.117917 -120.451280 356 3844ft 112kts
13-Feb-20 10:43 35.142584 -120.483138 306 3026ft 111kts
13-Feb-20 10:43 35.157647 -120.508309 306 2940ft 103kts
13-Feb-20 10:44 35.174552 -120.534878 307 2445ft 89kts
13-Feb-20 10:45 35.189496 -120.559464 305 1994ft 91kts
13-Feb-20 10:46 35.204782 -120.586307 306 1304ft 93kts
13-Feb-20 10:47 35.219414 -120.610913 304 810ft 92kts
13-Feb-20 10:48 35.233345 -120.635081 305 1540ft 82kts
13-Feb-20 10:49 35.246444 -120.658714 303 2209ft 84kts
13-Feb-20 10:50 35.259641 -120.682416 305 2883ft 84kts
13-Feb-20 10:51 35.267922 -120.713177 283 3072ft 110kts
13-Feb-20 10:52 35.275048 -120.750355 283 3056ft 107kts
13-Feb-20 10:53 35.281972 -120.786676 286 3007ft 109kts
13-Feb-20 10:54 35.297907 -120.818753 301 3019ft 111kts
13-Feb-20 10:55 35.315263 -120.850941 303 3018ft 114kts
13-Feb-20 10:56 35.336682 -120.876916 1 3015ft 111kts
13-Feb-20 10:57 35.351308 -120.848156 94 3110ft 111kts
13-Feb-20 10:58 35.336104 -120.813785 126 3055ft 115kts
13-Feb-20 10:59 35.318738 -120.783774 124 2853ft 93kts
13-Feb-20 11:00 35.303852 -120.757538 123 2347ft 93kts
13-Feb-20 11:01 35.289120 -120.731827 127 1871ft 91kts
13-Feb-20 11:02 35.274587 -120.706256 125 1341ft 93kts
13-Feb-20 11:03 35.259984 -120.680895 123 855ft 91kts
13-Feb-20 11:04 35.245699 -120.655604 124 363ft 86kts
13-Feb-20 11:05 35.239563 -120.644574 87 216ft 16kts
13-Feb-20 11:06 35.238956 -120.642107 110 216ft 14kts
13-Feb-20 11:07 35.238456 -120.640625 279 216ft 0kts
13-Feb-20 11:08 35.238456 -120.640625 279 216ft 0kts
13-Feb-20 11:09 35.238456 -120.640625 279 216ft 0kts
13-Feb-20 11:10 35.238456 -120.640625 279 216ft 0kts
13-Feb-20 11:11 35.238456 -120.640625 279 216ft 0kts
13-Feb-20 11:12 35.238456 -120.640625 279 216ft 0kts
13-Feb-20 11:13 35.238456 -120.640625 279 216ft 0kts
13-Feb-20 11:14 35.238456 -120.640625 279 216ft 0kts
13-Feb-20 11:15 35.238456 -120.640625 279 216ft 0kts
13-Feb-20 11:16 35.238456 -120.640625 279 216ft 0kts
13-Feb-20 11:17 35.238456 -120.640625 279 216ft 0kts
13-Feb-20 11:18 35.238456 -120.640625 279 216ft 0kts

Navigation Log

Ident Type
Flight plan parsing failed, navigation log unavailable